North Hampton, NH (03862)

8:34 PM EST on November 28, 2014 (GMT -0500)
Coastal Rockingham NHZ014 | Change Station
CLOSE
Current Station
Personal Weather Station
Location: North Hampton, NH
Elevation: 110 ft
Nearby Weather Stations

Elev 110 ft 42.99 °N, 70.84 °W | Updated 16 seconds ago

Clear
Clear
23.6 °F
Feels Like 24 °F
N
0.0
Wind Variable Wind from WNW
Gusts 6.0 mph

Today
High -- | Low -- °F
--% Chance of Precip.
Yesterday
High -- | Low -- °F
Precip. -- in
6:51 AM 4:10 PM
Waxing Crescent, 46% visible
Pressure 30.16 in
Visibility 10.0 miles
Clouds Few 5000 ft
Windchill 24 °F
Dew Point 18 °F
Humidity 80%
Rainfall 0.02 in
Snow Depth Not available.
UV 0 out of 12
Pollen .10 out of 12
Air Quality Not available.
Flu Activity Not available.
METAR KPSM 290058Z 29009KT 10SM FEW050 M04/M08 A3014 RMK AO2A SLP211 T10391080

More Conditions Fewer Conditions

Pressure 30.16 in
Visibility 10.0 miles
Clouds Few 5000 ft
Windchill 24 °F
Dew Point 18 °F
Humidity 80%
Rainfall 0.02 in
Snow Depth Not available.
UV 0 out of 12
Pollen .10 out of 12
Air Quality Not available.
Flu Activity Not available.
METAR KPSM 290058Z 29009KT 10SM FEW050 M04/M08 A3014 RMK AO2A SLP211 T10391080

More Conditions Fewer Conditions

10-Day Weather Forecast

Almanac

Astronomy

Nov. 28, 2014 Rise Set
Actual Time
Civil Twilight
Nautical Twilight
Astronomical Twilight
Moon
Length of Visible Light
Length of Day
Tomorrow will be .
, % of the Moon is Illuminated

Today's Extremes

State Highs State Lows

Community

WunderPhotos

Upload Photos

1,774,366 photos uploaded!

WunderBlogs® & News

Nearby

Air Quality

  Air Quality AQ Index Pollutant
Not available.

Snow Depth

Station Depth Elevation

Earthquake Activity

City Distance Mag. Time & Date
Minimum magnitude displayed is 2.5.

Coastal Water Temperatures

Place Temperature

Nearby Weather Stations